Terminal Aerodrome Forecast
Issued by NWS

Home | Current Version | Previous Version | Text Only | Print | Product List | Glossary On
Versions: 1 2 3 4 5 6 7 8 9 10 11 12 13 14
556
FTUS45 KABQ 010041 AAA
TAFAEG
TAF AMD
KAEG 010041Z 0101/0124 11011KT P6SM BKN080 BKN120
      TEMPO 0101/0105 11015G25KT
     FM010700 05006KT P6SM FEW050 BKN100
     FM011500 13009KT P6SM SCT050 BKN100
     FM011900 14011KT P6SM VCTS BKN060CB
     FM012200 14010KT P6SM VCSH BKN090=

USA.gov is the U.S. government's official web portal to all federal, state and local government web resources and services.